TimeMDT,TemperatureF,Dew PointF,Humidity,Sea Level PressureIn,VisibilityMPH,Wind Direction,Wind SpeedMPH,Gust SpeedMPH,PrecipitationIn,Events,Conditions,WindDirDegrees,DateUTC
12:53 AM,66.9,64.0,90,30.11,10.0,SSE,10.4,-,N/A,,Overcast,150,2013-07-15 06:53:00
1:53 AM,66.0,63.0,90,30.12,9.0,South,9.2,-,0.00,Rain,Light Rain,190,2013-07-15 07:53:00
2:53 AM,66.0,64.0,93,30.11,10.0,SSE,4.6,-,0.00,,Overcast,150,2013-07-15 08:53:00
3:53 AM,66.0,64.0,93,30.14,9.0,SE,5.8,-,N/A,,Overcast,130,2013-07-15 09:53:00
4:53 AM,63.0,62.1,97,30.14,6.0,SE,4.6,-,N/A,,Clear,140,2013-07-15 10:53:00
5:53 AM,62.1,61.0,96,30.15,2.5,SE,5.8,-,N/A,,Clear,140,2013-07-15 11:53:00
6:11 AM,62.6,62.6,100,30.21,1.8,SE,5.8,-,N/A,,Scattered Clouds,140,2013-07-15 12:11:00
6:26 AM,62.6,62.6,100,30.21,1.0,SSE,5.8,-,N/A,,Mostly Cloudy,150,2013-07-15 12:26:00
6:29 AM,62.6,62.6,100,30.21,0.8,SSE,5.8,-,N/A,,Mostly Cloudy,150,2013-07-15 12:29:00
6:42 AM,62.6,62.6,100,30.22,1.5,SSE,6.9,-,N/A,,Mostly Cloudy,150,2013-07-15 12:42:00
6:49 AM,64.4,62.6,94,30.22,3.0,SSE,4.6,-,N/A,,Mostly Cloudy,150,2013-07-15 12:49:00
6:53 AM,64.0,63.0,96,30.16,4.0,SSE,5.8,-,N/A,,Scattered Clouds,160,2013-07-15 12:53:00
7:53 AM,68.0,63.0,84,30.16,10.0,South,6.9,-,N/A,,Clear,170,2013-07-15 13:53:00
8:53 AM,72.0,61.0,68,30.16,10.0,SSE,11.5,-,N/A,,Clear,150,2013-07-15 14:53:00
9:53 AM,73.9,60.1,62,30.16,10.0,South,15.0,20.7,N/A,,Partly Cloudy,180,2013-07-15 15:53:00
10:53 AM,77.0,59.0,54,30.15,10.0,South,13.8,18.4,N/A,,Scattered Clouds,180,2013-07-15 16:53:00
11:53 AM,77.0,57.9,52,30.15,10.0,SSE,10.4,19.6,N/A,,Partly Cloudy,160,2013-07-15 17:53:00
12:53 PM,79.0,57.0,47,30.13,10.0,South,11.5,19.6,N/A,,Scattered Clouds,190,2013-07-15 18:53:00
1:53 PM,81.0,53.1,38,30.10,10.0,SSE,17.3,27.6,N/A,,Scattered Clouds,150,2013-07-15 19:53:00
2:53 PM,82.0,53.1,37,30.09,10.0,SSE,11.5,19.6,N/A,,Scattered Clouds,150,2013-07-15 20:53:00
3:53 PM,82.9,53.1,36,30.07,10.0,South,10.4,20.7,N/A,,Partly Cloudy,180,2013-07-15 21:53:00
4:53 PM,82.9,52.0,34,30.06,10.0,South,13.8,-,N/A,,Mostly Cloudy,170,2013-07-15 22:53:00
5:53 PM,82.0,48.9,31,30.06,10.0,SSE,13.8,-,N/A,,Clear,150,2013-07-15 23:53:00
6:53 PM,80.1,50.0,35,30.06,10.0,SSE,10.4,20.7,N/A,,Clear,150,2013-07-16 00:53:00
7:53 PM,75.0,51.1,43,30.07,10.0,SSE,8.1,-,N/A,,Clear,150,2013-07-16 01:53:00
8:53 PM,68.0,55.0,63,30.09,10.0,SSE,4.6,-,N/A,,Clear,160,2013-07-16 02:53:00
9:53 PM,66.9,55.9,68,30.11,10.0,SE,6.9,-,N/A,,Mostly Cloudy,130,2013-07-16 03:53:00
10:53 PM,68.0,55.0,63,30.12,10.0,SSE,11.5,-,N/A,,Partly Cloudy,150,2013-07-16 04:53:00
11:53 PM,66.9,57.0,70,30.12,10.0,SE,13.8,-,N/A,,Clear,140,2013-07-16 05:53:00